sensor_id;sensor_type;location;lat;lon;timestamp;P1;durP1;ratioP1;P2;durP2;ratioP2
18931;SDS011;9598;50.954;3.112;2023-03-02T00:02:42;14.13;;;10.80;;
18931;SDS011;9598;50.954;3.112;2023-03-02T00:07:46;12.30;;;10.60;;
18931;SDS011;9598;50.954;3.112;2023-03-02T00:12:48;11.32;;;10.00;;
18931;SDS011;9598;50.954;3.112;2023-03-02T00:17:50;13.18;;;10.40;;
18931;SDS011;9598;50.954;3.112;2023-03-02T00:22:54;13.60;;;10.40;;
18931;SDS011;9598;50.954;3.112;2023-03-02T00:27:56;13.07;;;10.27;;
18931;SDS011;9598;50.954;3.112;2023-03-02T00:32:58;11.05;;;9.48;;
18931;SDS011;9598;50.954;3.112;2023-03-02T00:38:03;11.40;;;9.68;;
18931;SDS011;9598;50.954;3.112;2023-03-02T00:43:06;11.73;;;10.05;;
18931;SDS011;9598;50.954;3.112;2023-03-02T00:48:08;12.73;;;9.52;;
18931;SDS011;9598;50.954;3.112;2023-03-02T00:53:12;11.77;;;8.77;;
18931;SDS011;9598;50.954;3.112;2023-03-02T00:58:14;10.13;;;8.30;;
18931;SDS011;9598;50.954;3.112;2023-03-02T01:03:16;10.48;;;8.90;;
18931;SDS011;9598;50.954;3.112;2023-03-02T01:08:20;12.27;;;8.77;;
18931;SDS011;9598;50.954;3.112;2023-03-02T01:13:22;10.10;;;8.82;;
18931;SDS011;9598;50.954;3.112;2023-03-02T01:18:24;9.40;;;8.15;;
18931;SDS011;9598;50.954;3.112;2023-03-02T01:23:28;12.23;;;8.20;;
18931;SDS011;9598;50.954;3.112;2023-03-02T01:28:30;10.30;;;8.02;;
18931;SDS011;9598;50.954;3.112;2023-03-02T01:33:32;10.38;;;8.75;;
18931;SDS011;9598;50.954;3.112;2023-03-02T01:38:36;13.57;;;8.35;;
18931;SDS011;9598;50.954;3.112;2023-03-02T01:43:38;10.23;;;8.23;;
18931;SDS011;9598;50.954;3.112;2023-03-02T01:48:41;10.32;;;8.95;;
18931;SDS011;9598;50.954;3.112;2023-03-02T01:53:50;8.52;;;7.63;;
18931;SDS011;9598;50.954;3.112;2023-03-02T01:58:55;10.85;;;8.30;;
18931;SDS011;9598;50.954;3.112;2023-03-02T02:04:02;8.65;;;7.35;;
18931;SDS011;9598;50.954;3.112;2023-03-02T02:09:06;10.25;;;7.97;;
18931;SDS011;9598;50.954;3.112;2023-03-02T02:14:15;9.73;;;8.15;;
18931;SDS011;9598;50.954;3.112;2023-03-02T02:19:21;10.70;;;8.63;;
18931;SDS011;9598;50.954;3.112;2023-03-02T02:24:37;10.65;;;8.98;;
18931;SDS011;9598;50.954;3.112;2023-03-02T02:29:45;9.55;;;7.65;;
18931;SDS011;9598;50.954;3.112;2023-03-02T02:34:50;11.52;;;7.40;;
18931;SDS011;9598;50.954;3.112;2023-03-02T02:39:58;10.07;;;8.48;;
18931;SDS011;9598;50.954;3.112;2023-03-02T02:45:10;9.95;;;8.13;;
18931;SDS011;9598;50.954;3.112;2023-03-02T02:50:20;11.02;;;8.15;;
18931;SDS011;9598;50.954;3.112;2023-03-02T02:55:25;8.30;;;7.47;;
18931;SDS011;9598;50.954;3.112;2023-03-02T03:00:29;9.35;;;7.45;;
18931;SDS011;9598;50.954;3.112;2023-03-02T03:05:32;9.05;;;8.05;;
18931;SDS011;9598;50.954;3.112;2023-03-02T03:10:35;10.45;;;8.38;;
18931;SDS011;9598;50.954;3.112;2023-03-02T03:15:42;10.57;;;8.00;;
18931;SDS011;9598;50.954;3.112;2023-03-02T03:20:44;9.65;;;7.88;;
18931;SDS011;9598;50.954;3.112;2023-03-02T03:25:46;11.90;;;8.88;;
18931;SDS011;9598;50.954;3.112;2023-03-02T03:30:50;10.85;;;8.15;;
18931;SDS011;9598;50.954;3.112;2023-03-02T03:35:52;9.65;;;8.25;;
18931;SDS011;9598;50.954;3.112;2023-03-02T03:40:56;11.30;;;8.07;;
18931;SDS011;9598;50.954;3.112;2023-03-02T03:46:00;12.25;;;8.98;;
18931;SDS011;9598;50.954;3.112;2023-03-02T03:51:02;10.70;;;8.57;;
18931;SDS011;9598;50.954;3.112;2023-03-02T03:56:05;12.73;;;8.95;;
18931;SDS011;9598;50.954;3.112;2023-03-02T04:01:09;11.10;;;8.55;;
18931;SDS011;9598;50.954;3.112;2023-03-02T04:06:12;10.85;;;8.75;;
18931;SDS011;9598;50.954;3.112;2023-03-02T04:11:19;10.30;;;8.90;;
18931;SDS011;9598;50.954;3.112;2023-03-02T04:16:22;11.20;;;9.30;;
18931;SDS011;9598;50.954;3.112;2023-03-02T04:21:25;12.07;;;9.00;;
18931;SDS011;9598;50.954;3.112;2023-03-02T04:26:27;11.15;;;9.32;;
18931;SDS011;9598;50.954;3.112;2023-03-02T04:31:31;11.23;;;8.98;;
18931;SDS011;9598;50.954;3.112;2023-03-02T04:36:35;12.00;;;9.17;;
18931;SDS011;9598;50.954;3.112;2023-03-02T04:41:41;9.90;;;8.65;;
18931;SDS011;9598;50.954;3.112;2023-03-02T04:46:45;13.75;;;9.30;;
18931;SDS011;9598;50.954;3.112;2023-03-02T04:51:48;15.55;;;11.82;;
18931;SDS011;9598;50.954;3.112;2023-03-02T04:56:51;12.53;;;10.63;;
18931;SDS011;9598;50.954;3.112;2023-03-02T05:01:56;12.83;;;10.97;;
18931;SDS011;9598;50.954;3.112;2023-03-02T05:07:00;14.25;;;11.88;;
18931;SDS011;9598;50.954;3.112;2023-03-02T05:12:02;13.07;;;11.27;;
18931;SDS011;9598;50.954;3.112;2023-03-02T05:17:06;15.35;;;11.75;;
18931;SDS011;9598;50.954;3.112;2023-03-02T05:22:08;13.90;;;11.85;;
18931;SDS011;9598;50.954;3.112;2023-03-02T05:27:10;17.77;;;13.17;;
18931;SDS011;9598;50.954;3.112;2023-03-02T05:32:14;16.92;;;12.38;;
18931;SDS011;9598;50.954;3.112;2023-03-02T05:37:16;17.33;;;12.35;;
18931;SDS011;9598;50.954;3.112;2023-03-02T05:42:18;17.50;;;12.60;;
18931;SDS011;9598;50.954;3.112;2023-03-02T05:47:21;19.65;;;14.82;;
18931;SDS011;9598;50.954;3.112;2023-03-02T05:52:24;25.10;;;16.75;;
18931;SDS011;9598;50.954;3.112;2023-03-02T05:57:26;22.33;;;16.20;;
18931;SDS011;9598;50.954;3.112;2023-03-02T06:02:29;23.58;;;16.52;;
18931;SDS011;9598;50.954;3.112;2023-03-02T06:07:31;23.13;;;17.52;;
18931;SDS011;9598;50.954;3.112;2023-03-02T06:12:34;26.00;;;18.30;;
18931;SDS011;9598;50.954;3.112;2023-03-02T06:17:37;28.63;;;20.23;;
18931;SDS011;9598;50.954;3.112;2023-03-02T06:22:41;29.00;;;20.80;;
18931;SDS011;9598;50.954;3.112;2023-03-02T06:27:45;32.17;;;23.43;;
18931;SDS011;9598;50.954;3.112;2023-03-02T06:32:51;31.90;;;22.80;;
18931;SDS011;9598;50.954;3.112;2023-03-02T06:37:54;36.13;;;22.30;;
18931;SDS011;9598;50.954;3.112;2023-03-02T06:42:56;30.92;;;21.23;;
18931;SDS011;9598;50.954;3.112;2023-03-02T06:48:01;37.97;;;25.53;;
18931;SDS011;9598;50.954;3.112;2023-03-02T06:53:04;34.03;;;23.73;;
18931;SDS011;9598;50.954;3.112;2023-03-02T06:58:06;41.23;;;25.80;;
18931;SDS011;9598;50.954;3.112;2023-03-02T07:03:13;39.47;;;26.47;;
18931;SDS011;9598;50.954;3.112;2023-03-02T07:08:16;37.83;;;25.00;;
18931;SDS011;9598;50.954;3.112;2023-03-02T07:13:18;44.53;;;25.47;;
18931;SDS011;9598;50.954;3.112;2023-03-02T07:18:28;41.47;;;28.23;;
18931;SDS011;9598;50.954;3.112;2023-03-02T07:23:30;38.75;;;26.73;;
18931;SDS011;9598;50.954;3.112;2023-03-02T07:28:33;41.63;;;27.77;;
18931;SDS011;9598;50.954;3.112;2023-03-02T07:33:38;44.35;;;26.88;;
18931;SDS011;9598;50.954;3.112;2023-03-02T07:38:40;41.50;;;25.50;;
18931;SDS011;9598;50.954;3.112;2023-03-02T07:43:42;46.42;;;27.60;;
18931;SDS011;9598;50.954;3.112;2023-03-02T07:48:46;41.90;;;26.63;;
18931;SDS011;9598;50.954;3.112;2023-03-02T07:53:48;43.83;;;27.35;;
18931;SDS011;9598;50.954;3.112;2023-03-02T07:58:50;37.87;;;25.17;;
18931;SDS011;9598;50.954;3.112;2023-03-02T08:03:53;44.05;;;27.48;;
18931;SDS011;9598;50.954;3.112;2023-03-02T08:08:56;42.35;;;26.83;;
18931;SDS011;9598;50.954;3.112;2023-03-02T08:13:59;46.28;;;28.15;;
18931;SDS011;9598;50.954;3.112;2023-03-02T08:19:04;42.40;;;27.02;;
18931;SDS011;9598;50.954;3.112;2023-03-02T08:24:06;39.05;;;26.15;;
18931;SDS011;9598;50.954;3.112;2023-03-02T08:29:08;43.53;;;27.95;;
18931;SDS011;9598;50.954;3.112;2023-03-02T08:34:12;42.70;;;27.77;;
18931;SDS011;9598;50.954;3.112;2023-03-02T08:39:14;44.03;;;27.95;;
18931;SDS011;9598;50.954;3.112;2023-03-02T08:44:16;43.30;;;26.33;;
18931;SDS011;9598;50.954;3.112;2023-03-02T08:49:21;43.33;;;25.20;;
18931;SDS011;9598;50.954;3.112;2023-03-02T08:54:23;39.53;;;26.45;;
18931;SDS011;9598;50.954;3.112;2023-03-02T08:59:26;37.10;;;24.35;;
18931;SDS011;9598;50.954;3.112;2023-03-02T09:04:29;42.17;;;24.33;;
18931;SDS011;9598;50.954;3.112;2023-03-02T09:09:31;36.72;;;24.48;;
18931;SDS011;9598;50.954;3.112;2023-03-02T09:14:34;39.03;;;24.05;;
18931;SDS011;9598;50.954;3.112;2023-03-02T09:19:37;40.08;;;25.15;;
18931;SDS011;9598;50.954;3.112;2023-03-02T09:24:41;35.25;;;22.67;;
18931;SDS011;9598;50.954;3.112;2023-03-02T09:29:43;36.35;;;24.23;;
18931;SDS011;9598;50.954;3.112;2023-03-02T09:34:46;28.77;;;18.83;;
18931;SDS011;9598;50.954;3.112;2023-03-02T09:39:49;38.72;;;24.20;;
18931;SDS011;9598;50.954;3.112;2023-03-02T09:45:02;31.58;;;21.35;;
18931;SDS011;9598;50.954;3.112;2023-03-02T09:50:33;36.05;;;22.38;;
18931;SDS011;9598;50.954;3.112;2023-03-02T09:55:37;34.17;;;21.90;;
18931;SDS011;9598;50.954;3.112;2023-03-02T10:00:40;29.48;;;20.25;;
18931;SDS011;9598;50.954;3.112;2023-03-02T10:05:45;31.17;;;20.85;;
18931;SDS011;9598;50.954;3.112;2023-03-02T10:10:51;32.05;;;20.45;;
18931;SDS011;9598;50.954;3.112;2023-03-02T10:16:04;30.67;;;19.02;;
18931;SDS011;9598;50.954;3.112;2023-03-02T10:21:19;28.48;;;18.15;;
18931;SDS011;9598;50.954;3.112;2023-03-02T10:26:28;29.88;;;20.73;;
18931;SDS011;9598;50.954;3.112;2023-03-02T10:31:38;29.30;;;21.77;;
18931;SDS011;9598;50.954;3.112;2023-03-02T10:36:44;29.05;;;18.75;;
18931;SDS011;9598;50.954;3.112;2023-03-02T10:41:48;32.85;;;19.65;;
18931;SDS011;9598;50.954;3.112;2023-03-02T10:46:52;30.20;;;21.70;;
18931;SDS011;9598;50.954;3.112;2023-03-02T10:51:57;32.17;;;20.80;;
18931;SDS011;9598;50.954;3.112;2023-03-02T10:57:03;30.17;;;20.20;;
18931;SDS011;9598;50.954;3.112;2023-03-02T11:02:20;32.92;;;20.30;;
18931;SDS011;9598;50.954;3.112;2023-03-02T11:07:25;28.58;;;20.25;;
18931;SDS011;9598;50.954;3.112;2023-03-02T11:12:29;27.90;;;18.75;;
18931;SDS011;9598;50.954;3.112;2023-03-02T11:17:32;26.55;;;19.13;;
18931;SDS011;9598;50.954;3.112;2023-03-02T11:22:40;25.35;;;18.10;;
18931;SDS011;9598;50.954;3.112;2023-03-02T11:27:47;27.98;;;20.02;;
18931;SDS011;9598;50.954;3.112;2023-03-02T11:32:57;25.73;;;17.23;;
18931;SDS011;9598;50.954;3.112;2023-03-02T11:38:09;26.85;;;17.77;;
18931;SDS011;9598;50.954;3.112;2023-03-02T11:43:17;22.17;;;17.70;;
18931;SDS011;9598;50.954;3.112;2023-03-02T11:48:20;31.70;;;18.10;;
18931;SDS011;9598;50.954;3.112;2023-03-02T11:53:28;29.02;;;19.23;;
18931;SDS011;9598;50.954;3.112;2023-03-02T11:58:33;25.65;;;19.17;;
18931;SDS011;9598;50.954;3.112;2023-03-02T12:03:39;26.50;;;18.88;;
18931;SDS011;9598;50.954;3.112;2023-03-02T12:08:46;26.17;;;19.80;;
18931;SDS011;9598;50.954;3.112;2023-03-02T12:13:57;22.90;;;17.17;;
18931;SDS011;9598;50.954;3.112;2023-03-02T12:19:10;25.40;;;17.80;;
18931;SDS011;9598;50.954;3.112;2023-03-02T12:24:25;27.15;;;18.60;;
18931;SDS011;9598;50.954;3.112;2023-03-02T12:29:36;24.35;;;17.63;;
18931;SDS011;9598;50.954;3.112;2023-03-02T12:34:40;24.80;;;16.90;;
18931;SDS011;9598;50.954;3.112;2023-03-02T12:39:55;26.00;;;17.75;;
18931;SDS011;9598;50.954;3.112;2023-03-02T12:45:26;24.38;;;17.85;;
18931;SDS011;9598;50.954;3.112;2023-03-02T12:50:41;26.95;;;17.02;;
18931;SDS011;9598;50.954;3.112;2023-03-02T12:55:45;24.45;;;17.50;;
18931;SDS011;9598;50.954;3.112;2023-03-02T13:00:48;22.65;;;16.40;;
18931;SDS011;9598;50.954;3.112;2023-03-02T13:06:00;24.45;;;16.20;;
18931;SDS011;9598;50.954;3.112;2023-03-02T13:11:04;20.98;;;16.58;;
18931;SDS011;9598;50.954;3.112;2023-03-02T13:16:17;21.98;;;16.58;;
18931;SDS011;9598;50.954;3.112;2023-03-02T13:21:23;21.65;;;15.15;;
18931;SDS011;9598;50.954;3.112;2023-03-02T13:26:33;22.50;;;16.00;;
18931;SDS011;9598;50.954;3.112;2023-03-02T13:31:39;22.23;;;16.08;;
18931;SDS011;9598;50.954;3.112;2023-03-02T13:36:41;20.05;;;15.60;;
18931;SDS011;9598;50.954;3.112;2023-03-02T13:41:51;24.05;;;14.75;;
18931;SDS011;9598;50.954;3.112;2023-03-02T13:46:55;22.67;;;16.80;;
18931;SDS011;9598;50.954;3.112;2023-03-02T13:52:00;21.25;;;17.05;;
18931;SDS011;9598;50.954;3.112;2023-03-02T13:57:05;25.23;;;17.63;;
18931;SDS011;9598;50.954;3.112;2023-03-02T14:02:21;20.48;;;16.50;;
18931;SDS011;9598;50.954;3.112;2023-03-02T14:07:24;19.88;;;15.77;;
18931;SDS011;9598;50.954;3.112;2023-03-02T14:12:29;25.35;;;17.80;;
18931;SDS011;9598;50.954;3.112;2023-03-02T14:17:33;22.02;;;15.82;;
18931;SDS011;9598;50.954;3.112;2023-03-02T14:22:35;23.23;;;16.83;;
18931;SDS011;9598;50.954;3.112;2023-03-02T14:27:39;22.08;;;16.77;;
18931;SDS011;9598;50.954;3.112;2023-03-02T14:32:42;26.65;;;18.08;;
18931;SDS011;9598;50.954;3.112;2023-03-02T14:37:45;23.40;;;16.70;;
18931;SDS011;9598;50.954;3.112;2023-03-02T14:42:50;21.98;;;15.25;;
18931;SDS011;9598;50.954;3.112;2023-03-02T14:47:52;23.80;;;15.80;;
18931;SDS011;9598;50.954;3.112;2023-03-02T14:52:55;23.05;;;16.95;;
18931;SDS011;9598;50.954;3.112;2023-03-02T14:58:01;23.05;;;17.30;;
18931;SDS011;9598;50.954;3.112;2023-03-02T15:03:05;22.17;;;16.48;;
18931;SDS011;9598;50.954;3.112;2023-03-02T15:08:08;23.48;;;18.98;;
18931;SDS011;9598;50.954;3.112;2023-03-02T15:13:14;25.05;;;18.00;;
18931;SDS011;9598;50.954;3.112;2023-03-02T15:18:16;21.40;;;16.73;;
18931;SDS011;9598;50.954;3.112;2023-03-02T15:23:18;19.63;;;13.75;;
18931;SDS011;9598;50.954;3.112;2023-03-02T15:28:22;19.63;;;14.35;;
18931;SDS011;9598;50.954;3.112;2023-03-02T15:33:24;20.08;;;14.45;;
18931;SDS011;9598;50.954;3.112;2023-03-02T15:38:26;18.80;;;14.18;;
18931;SDS011;9598;50.954;3.112;2023-03-02T15:43:30;17.92;;;13.45;;
18931;SDS011;9598;50.954;3.112;2023-03-02T15:48:32;18.23;;;13.23;;
18931;SDS011;9598;50.954;3.112;2023-03-02T15:53:35;18.15;;;13.27;;
18931;SDS011;9598;50.954;3.112;2023-03-02T15:58:39;17.40;;;14.10;;
18931;SDS011;9598;50.954;3.112;2023-03-02T16:03:45;16.95;;;13.00;;
18931;SDS011;9598;50.954;3.112;2023-03-02T16:08:47;15.98;;;11.70;;
18931;SDS011;9598;50.954;3.112;2023-03-02T16:13:51;16.77;;;11.75;;
18931;SDS011;9598;50.954;3.112;2023-03-02T16:18:54;17.98;;;13.50;;
18931;SDS011;9598;50.954;3.112;2023-03-02T16:23:58;18.33;;;13.68;;
18931;SDS011;9598;50.954;3.112;2023-03-02T16:29:04;16.17;;;13.27;;
18931;SDS011;9598;50.954;3.112;2023-03-02T16:34:08;17.33;;;11.80;;
18931;SDS011;9598;50.954;3.112;2023-03-02T16:39:10;16.83;;;12.82;;
18931;SDS011;9598;50.954;3.112;2023-03-02T16:44:14;20.38;;;13.15;;
18931;SDS011;9598;50.954;3.112;2023-03-02T16:49:17;17.40;;;13.43;;
18931;SDS011;9598;50.954;3.112;2023-03-02T16:54:19;18.23;;;13.38;;
18931;SDS011;9598;50.954;3.112;2023-03-02T16:59:22;16.90;;;14.23;;
18931;SDS011;9598;50.954;3.112;2023-03-02T17:04:24;23.52;;;17.52;;
18931;SDS011;9598;50.954;3.112;2023-03-02T17:09:26;24.63;;;18.75;;
18931;SDS011;9598;50.954;3.112;2023-03-02T17:14:30;28.27;;;19.63;;
18931;SDS011;9598;50.954;3.112;2023-03-02T17:19:32;24.02;;;18.50;;
18931;SDS011;9598;50.954;3.112;2023-03-02T17:24:34;28.02;;;19.00;;
18931;SDS011;9598;50.954;3.112;2023-03-02T17:29:37;29.90;;;19.75;;
18931;SDS011;9598;50.954;3.112;2023-03-02T17:34:39;27.55;;;20.70;;
18931;SDS011;9598;50.954;3.112;2023-03-02T17:39:42;26.27;;;20.10;;
18931;SDS011;9598;50.954;3.112;2023-03-02T17:44:46;29.25;;;20.33;;
18931;SDS011;9598;50.954;3.112;2023-03-02T17:49:48;26.27;;;19.90;;
18931;SDS011;9598;50.954;3.112;2023-03-02T17:54:50;30.58;;;21.42;;
18931;SDS011;9598;50.954;3.112;2023-03-02T17:59:54;28.35;;;20.60;;
18931;SDS011;9598;50.954;3.112;2023-03-02T18:04:57;25.70;;;19.38;;
18931;SDS011;9598;50.954;3.112;2023-03-02T18:09:59;28.45;;;21.05;;
18931;SDS011;9598;50.954;3.112;2023-03-02T18:15:04;28.75;;;20.80;;
18931;SDS011;9598;50.954;3.112;2023-03-02T18:20:07;32.83;;;21.27;;
18931;SDS011;9598;50.954;3.112;2023-03-02T18:25:11;35.30;;;21.98;;
18931;SDS011;9598;50.954;3.112;2023-03-02T18:30:15;32.58;;;23.30;;
18931;SDS011;9598;50.954;3.112;2023-03-02T18:35:17;33.97;;;23.50;;
18931;SDS011;9598;50.954;3.112;2023-03-02T18:40:19;45.47;;;28.75;;
18931;SDS011;9598;50.954;3.112;2023-03-02T18:45:24;45.03;;;28.30;;
18931;SDS011;9598;50.954;3.112;2023-03-02T18:50:27;40.92;;;24.35;;
18931;SDS011;9598;50.954;3.112;2023-03-02T18:55:30;36.10;;;23.15;;
18931;SDS011;9598;50.954;3.112;2023-03-02T19:00:33;31.08;;;21.65;;
18931;SDS011;9598;50.954;3.112;2023-03-02T19:05:36;30.92;;;21.70;;
18931;SDS011;9598;50.954;3.112;2023-03-02T19:10:39;40.38;;;23.55;;
18931;SDS011;9598;50.954;3.112;2023-03-02T19:15:43;35.40;;;22.67;;
18931;SDS011;9598;50.954;3.112;2023-03-02T19:20:45;35.50;;;23.98;;
18931;SDS011;9598;50.954;3.112;2023-03-02T19:25:48;35.20;;;21.92;;
18931;SDS011;9598;50.954;3.112;2023-03-02T19:30:52;33.95;;;19.70;;
18931;SDS011;9598;50.954;3.112;2023-03-02T19:35:54;33.60;;;22.42;;
18931;SDS011;9598;50.954;3.112;2023-03-02T19:40:57;33.30;;;21.67;;
18931;SDS011;9598;50.954;3.112;2023-03-02T19:46:03;34.47;;;21.42;;
18931;SDS011;9598;50.954;3.112;2023-03-02T19:51:05;37.30;;;22.23;;
18931;SDS011;9598;50.954;3.112;2023-03-02T19:56:09;37.55;;;22.63;;
18931;SDS011;9598;50.954;3.112;2023-03-02T20:01:15;33.88;;;20.77;;
18931;SDS011;9598;50.954;3.112;2023-03-02T20:06:21;35.13;;;21.20;;
18931;SDS011;9598;50.954;3.112;2023-03-02T20:11:24;37.88;;;22.42;;
18931;SDS011;9598;50.954;3.112;2023-03-02T20:16:29;40.05;;;24.52;;
18931;SDS011;9598;50.954;3.112;2023-03-02T20:21:33;39.90;;;25.02;;
18931;SDS011;9598;50.954;3.112;2023-03-02T20:26:37;34.30;;;22.77;;
18931;SDS011;9598;50.954;3.112;2023-03-02T20:31:40;30.63;;;21.02;;
18931;SDS011;9598;50.954;3.112;2023-03-02T20:36:43;28.70;;;21.25;;
18931;SDS011;9598;50.954;3.112;2023-03-02T20:41:46;31.83;;;22.48;;
18931;SDS011;9598;50.954;3.112;2023-03-02T20:46:51;30.88;;;22.27;;
18931;SDS011;9598;50.954;3.112;2023-03-02T20:51:56;30.08;;;22.45;;
18931;SDS011;9598;50.954;3.112;2023-03-02T20:56:59;28.40;;;20.55;;
18931;SDS011;9598;50.954;3.112;2023-03-02T21:02:04;33.58;;;22.00;;
18931;SDS011;9598;50.954;3.112;2023-03-02T21:07:06;29.35;;;21.42;;
18931;SDS011;9598;50.954;3.112;2023-03-02T21:12:08;29.80;;;20.80;;
18931;SDS011;9598;50.954;3.112;2023-03-02T21:17:12;28.60;;;20.48;;
18931;SDS011;9598;50.954;3.112;2023-03-02T21:22:14;30.80;;;20.58;;
18931;SDS011;9598;50.954;3.112;2023-03-02T21:27:16;29.75;;;21.48;;
18931;SDS011;9598;50.954;3.112;2023-03-02T21:32:20;31.42;;;19.88;;
18931;SDS011;9598;50.954;3.112;2023-03-02T21:37:22;29.10;;;21.15;;
18931;SDS011;9598;50.954;3.112;2023-03-02T21:42:24;32.45;;;20.98;;
18931;SDS011;9598;50.954;3.112;2023-03-02T21:47:27;30.80;;;21.35;;
18931;SDS011;9598;50.954;3.112;2023-03-02T21:52:29;28.13;;;20.15;;
18931;SDS011;9598;50.954;3.112;2023-03-02T21:57:32;29.50;;;21.00;;
18931;SDS011;9598;50.954;3.112;2023-03-02T22:02:36;28.52;;;20.75;;
18931;SDS011;9598;50.954;3.112;2023-03-02T22:07:38;31.85;;;21.77;;
18931;SDS011;9598;50.954;3.112;2023-03-02T22:12:40;29.85;;;20.52;;
18931;SDS011;9598;50.954;3.112;2023-03-02T22:17:45;33.08;;;21.95;;
18931;SDS011;9598;50.954;3.112;2023-03-02T22:22:51;28.73;;;19.98;;
18931;SDS011;9598;50.954;3.112;2023-03-02T22:27:54;28.95;;;19.85;;
18931;SDS011;9598;50.954;3.112;2023-03-02T22:32:57;29.13;;;21.48;;
18931;SDS011;9598;50.954;3.112;2023-03-02T22:38:04;25.52;;;19.38;;
18931;SDS011;9598;50.954;3.112;2023-03-02T22:43:13;25.98;;;19.80;;
18931;SDS011;9598;50.954;3.112;2023-03-02T22:48:22;28.67;;;20.25;;
18931;SDS011;9598;50.954;3.112;2023-03-02T22:53:28;30.33;;;20.95;;
18931;SDS011;9598;50.954;3.112;2023-03-02T22:58:42;30.65;;;20.88;;
18931;SDS011;9598;50.954;3.112;2023-03-02T23:03:48;30.45;;;20.20;;
18931;SDS011;9598;50.954;3.112;2023-03-02T23:08:51;27.88;;;20.63;;
18931;SDS011;9598;50.954;3.112;2023-03-02T23:13:55;28.30;;;20.42;;
18931;SDS011;9598;50.954;3.112;2023-03-02T23:18:58;31.25;;;19.95;;
18931;SDS011;9598;50.954;3.112;2023-03-02T23:24:02;25.50;;;19.65;;
18931;SDS011;9598;50.954;3.112;2023-03-02T23:29:04;31.73;;;20.00;;
18931;SDS011;9598;50.954;3.112;2023-03-02T23:34:08;30.48;;;19.58;;
18931;SDS011;9598;50.954;3.112;2023-03-02T23:39:10;26.63;;;19.58;;
18931;SDS011;9598;50.954;3.112;2023-03-02T23:44:13;28.90;;;19.83;;
18931;SDS011;9598;50.954;3.112;2023-03-02T23:49:17;32.45;;;22.20;;
18931;SDS011;9598;50.954;3.112;2023-03-02T23:54:19;29.15;;;19.58;;
18931;SDS011;9598;50.954;3.112;2023-03-02T23:59:21;28.65;;;19.73;;
